Dwarf, Kentucky
Current Conditions -  °F | °C
As of 8:53 AM on Thursday 29 Jan 2015 (Local Time) from KJKL Reporting Station
Overcast Overcast  
Wind Chill: 38°   Ceiling: 11000
Heat Index: 41°   Visibility: 10mi
Dew Point: 21°   Wind: 5mph
Humidity: 45%   Direction: NA
Pressure: 30.01"   Gusts: NA
Location:  37.33°N, 83.13°W
Report Text: KJKL 291353Z AUTO VRB04KT 10SM FEW070 SCT090 OVC110 05/M06 A3001 RMK AO2 SLP168 T00501061
Loading
Personal Weather Stations






























Interactive Weather Map New forecast layout! Learn more

10-Day Weather Forecast

Advertisements
Track Severe Weather on mobile